sensor_id;sensor_type;location;lat;lon;timestamp;temperature;humidity
33739;DHT22;20063;51.730;11.110;2023-07-08T00:00:24;16.50;99.90
33739;DHT22;20063;51.730;11.110;2023-07-08T00:02:50;16.40;99.90
33739;DHT22;20063;51.730;11.110;2023-07-08T00:05:18;16.40;99.90
33739;DHT22;20063;51.730;11.110;2023-07-08T00:07:44;16.40;99.90
33739;DHT22;20063;51.730;11.110;2023-07-08T00:12:45;16.40;99.90
33739;DHT22;20063;51.730;11.110;2023-07-08T00:15:11;16.40;99.90
33739;DHT22;20063;51.730;11.110;2023-07-08T00:17:37;16.40;99.90
33739;DHT22;20063;51.730;11.110;2023-07-08T00:20:16;16.30;99.90
33739;DHT22;20063;51.730;11.110;2023-07-08T00:22:43;16.30;99.90
33739;DHT22;20063;51.730;11.110;2023-07-08T00:25:13;16.30;99.90
33739;DHT22;20063;51.730;11.110;2023-07-08T00:27:40;16.30;99.90
33739;DHT22;20063;51.730;11.110;2023-07-08T00:30:26;16.30;99.90
33739;DHT22;20063;51.730;11.110;2023-07-08T00:32:53;16.20;99.90
33739;DHT22;20063;51.730;11.110;2023-07-08T00:37:48;16.20;99.90
33739;DHT22;20063;51.730;11.110;2023-07-08T00:40:17;16.20;99.90
33739;DHT22;20063;51.730;11.110;2023-07-08T00:42:44;16.20;99.90
33739;DHT22;20063;51.730;11.110;2023-07-08T00:48:46;16.10;99.90
33739;DHT22;20063;51.730;11.110;2023-07-08T00:50:52;16.10;99.90
33739;DHT22;20063;51.730;11.110;2023-07-08T00:53:26;16.00;99.90
33739;DHT22;20063;51.730;11.110;2023-07-08T00:55:59;16.00;99.90
33739;DHT22;20063;51.730;11.110;2023-07-08T00:58:31;16.00;99.90
33739;DHT22;20063;51.730;11.110;2023-07-08T01:00:58;15.90;99.90
33739;DHT22;20063;51.730;11.110;2023-07-08T01:03:24;15.90;99.90
33739;DHT22;20063;51.730;11.110;2023-07-08T01:05:53;15.90;99.90
33739;DHT22;20063;51.730;11.110;2023-07-08T01:08:22;15.90;99.90
33739;DHT22;20063;51.730;11.110;2023-07-08T01:11:00;15.90;99.90
33739;DHT22;20063;51.730;11.110;2023-07-08T01:13:30;15.80;99.90
33739;DHT22;20063;51.730;11.110;2023-07-08T01:15:56;15.80;99.90
33739;DHT22;20063;51.730;11.110;2023-07-08T01:18:23;15.80;99.90
33739;DHT22;20063;51.730;11.110;2023-07-08T01:20:50;15.70;99.90
33739;DHT22;20063;51.730;11.110;2023-07-08T01:23:17;15.70;99.90
33739;DHT22;20063;51.730;11.110;2023-07-08T01:25:44;15.70;99.90
33739;DHT22;20063;51.730;11.110;2023-07-08T01:28:10;15.70;99.90
33739;DHT22;20063;51.730;11.110;2023-07-08T01:30:36;15.70;99.90
33739;DHT22;20063;51.730;11.110;2023-07-08T01:33:05;15.70;99.90
33739;DHT22;20063;51.730;11.110;2023-07-08T01:35:32;15.70;99.90
33739;DHT22;20063;51.730;11.110;2023-07-08T01:38:00;15.70;99.90
33739;DHT22;20063;51.730;11.110;2023-07-08T01:40:37;15.70;99.90
33739;DHT22;20063;51.730;11.110;2023-07-08T01:43:04;15.70;99.90
33739;DHT22;20063;51.730;11.110;2023-07-08T01:45:36;15.70;99.90
33739;DHT22;20063;51.730;11.110;2023-07-08T01:48:05;15.70;99.90
33739;DHT22;20063;51.730;11.110;2023-07-08T01:50:32;15.70;99.90
33739;DHT22;20063;51.730;11.110;2023-07-08T01:53:02;15.70;99.90
33739;DHT22;20063;51.730;11.110;2023-07-08T01:55:32;15.70;99.90
33739;DHT22;20063;51.730;11.110;2023-07-08T01:57:58;15.60;99.90
33739;DHT22;20063;51.730;11.110;2023-07-08T02:00:23;15.70;99.90
33739;DHT22;20063;51.730;11.110;2023-07-08T02:02:51;15.70;99.90
33739;DHT22;20063;51.730;11.110;2023-07-08T02:05:18;15.70;99.90
33739;DHT22;20063;51.730;11.110;2023-07-08T02:07:43;15.80;99.90
33739;DHT22;20063;51.730;11.110;2023-07-08T02:10:09;15.80;99.90
33739;DHT22;20063;51.730;11.110;2023-07-08T02:12:35;15.70;99.90
33739;DHT22;20063;51.730;11.110;2023-07-08T02:15:01;15.70;99.90
33739;DHT22;20063;51.730;11.110;2023-07-08T02:17:27;15.60;99.90
33739;DHT22;20063;51.730;11.110;2023-07-08T02:19:56;15.60;99.90
33739;DHT22;20063;51.730;11.110;2023-07-08T02:22:22;15.60;99.90
33739;DHT22;20063;51.730;11.110;2023-07-08T02:24:48;15.50;99.90
33739;DHT22;20063;51.730;11.110;2023-07-08T02:27:14;15.40;99.90
33739;DHT22;20063;51.730;11.110;2023-07-08T02:29:40;15.40;99.90
33739;DHT22;20063;51.730;11.110;2023-07-08T02:32:06;15.40;99.90
33739;DHT22;20063;51.730;11.110;2023-07-08T02:34:32;15.30;99.90
33739;DHT22;20063;51.730;11.110;2023-07-08T02:36:57;15.30;99.90
33739;DHT22;20063;51.730;11.110;2023-07-08T02:39:23;15.30;99.90
33739;DHT22;20063;51.730;11.110;2023-07-08T02:41:49;15.20;99.90
33739;DHT22;20063;51.730;11.110;2023-07-08T02:44:15;15.20;99.90
33739;DHT22;20063;51.730;11.110;2023-07-08T02:46:40;15.10;99.90
33739;DHT22;20063;51.730;11.110;2023-07-08T02:49:06;15.10;99.90
33739;DHT22;20063;51.730;11.110;2023-07-08T02:51:32;15.10;99.90
33739;DHT22;20063;51.730;11.110;2023-07-08T02:53:58;15.10;99.90
33739;DHT22;20063;51.730;11.110;2023-07-08T02:56:23;15.10;99.90
33739;DHT22;20063;51.730;11.110;2023-07-08T02:58:49;15.00;99.90
33739;DHT22;20063;51.730;11.110;2023-07-08T03:01:15;15.00;99.90
33739;DHT22;20063;51.730;11.110;2023-07-08T03:03:46;15.00;99.90
33739;DHT22;20063;51.730;11.110;2023-07-08T03:06:13;15.00;99.90
33739;DHT22;20063;51.730;11.110;2023-07-08T03:08:39;15.10;99.90
33739;DHT22;20063;51.730;11.110;2023-07-08T03:11:06;15.00;99.90
33739;DHT22;20063;51.730;11.110;2023-07-08T03:13:33;15.00;99.90
33739;DHT22;20063;51.730;11.110;2023-07-08T03:16:00;15.00;99.90
33739;DHT22;20063;51.730;11.110;2023-07-08T03:18:26;15.00;99.90
33739;DHT22;20063;51.730;11.110;2023-07-08T03:20:56;15.00;99.90
33739;DHT22;20063;51.730;11.110;2023-07-08T03:23:23;15.00;99.90
33739;DHT22;20063;51.730;11.110;2023-07-08T03:25:49;15.00;99.90
33739;DHT22;20063;51.730;11.110;2023-07-08T03:28:15;15.00;99.90
33739;DHT22;20063;51.730;11.110;2023-07-08T03:30:41;15.10;99.90
33739;DHT22;20063;51.730;11.110;2023-07-08T03:33:08;15.10;99.90
33739;DHT22;20063;51.730;11.110;2023-07-08T03:35:34;15.10;99.90
33739;DHT22;20063;51.730;11.110;2023-07-08T03:37:59;15.10;99.90
33739;DHT22;20063;51.730;11.110;2023-07-08T03:40:25;15.10;99.90
33739;DHT22;20063;51.730;11.110;2023-07-08T03:42:50;15.10;99.90
33739;DHT22;20063;51.730;11.110;2023-07-08T03:45:16;15.10;99.90
33739;DHT22;20063;51.730;11.110;2023-07-08T03:47:42;15.10;99.90
33739;DHT22;20063;51.730;11.110;2023-07-08T03:50:17;15.10;99.90
33739;DHT22;20063;51.730;11.110;2023-07-08T03:52:45;15.10;99.90
33739;DHT22;20063;51.730;11.110;2023-07-08T03:55:11;15.20;99.90
33739;DHT22;20063;51.730;11.110;2023-07-08T03:57:37;15.20;99.90
33739;DHT22;20063;51.730;11.110;2023-07-08T04:00:03;15.20;99.90
33739;DHT22;20063;51.730;11.110;2023-07-08T04:02:29;15.20;99.90
33739;DHT22;20063;51.730;11.110;2023-07-08T04:04:55;15.30;99.90
33739;DHT22;20063;51.730;11.110;2023-07-08T04:07:20;15.30;99.90
33739;DHT22;20063;51.730;11.110;2023-07-08T04:09:46;15.30;99.90
33739;DHT22;20063;51.730;11.110;2023-07-08T04:12:15;15.40;99.90
33739;DHT22;20063;51.730;11.110;2023-07-08T04:14:41;15.40;99.90
33739;DHT22;20063;51.730;11.110;2023-07-08T04:17:09;15.40;99.90
33739;DHT22;20063;51.730;11.110;2023-07-08T04:19:35;15.40;99.90
33739;DHT22;20063;51.730;11.110;2023-07-08T04:22:02;15.40;99.90
33739;DHT22;20063;51.730;11.110;2023-07-08T04:24:28;15.50;99.90
33739;DHT22;20063;51.730;11.110;2023-07-08T04:26:53;15.50;99.90
33739;DHT22;20063;51.730;11.110;2023-07-08T04:29:22;15.60;99.90
33739;DHT22;20063;51.730;11.110;2023-07-08T04:31:48;15.60;99.90
33739;DHT22;20063;51.730;11.110;2023-07-08T04:34:14;15.60;99.90
33739;DHT22;20063;51.730;11.110;2023-07-08T04:36:40;15.70;99.90
33739;DHT22;20063;51.730;11.110;2023-07-08T04:39:08;15.80;99.90
33739;DHT22;20063;51.730;11.110;2023-07-08T04:41:36;15.80;99.90
33739;DHT22;20063;51.730;11.110;2023-07-08T04:44:08;15.90;99.90
33739;DHT22;20063;51.730;11.110;2023-07-08T04:49:10;16.10;99.90
33739;DHT22;20063;51.730;11.110;2023-07-08T04:51:36;16.10;99.90
33739;DHT22;20063;51.730;11.110;2023-07-08T04:54:02;16.20;99.90
33739;DHT22;20063;51.730;11.110;2023-07-08T04:56:46;16.20;99.90
33739;DHT22;20063;51.730;11.110;2023-07-08T04:59:15;16.20;99.90
33739;DHT22;20063;51.730;11.110;2023-07-08T05:01:40;16.30;99.90
33739;DHT22;20063;51.730;11.110;2023-07-08T05:04:09;16.40;99.90
33739;DHT22;20063;51.730;11.110;2023-07-08T05:06:34;16.40;99.90
33739;DHT22;20063;51.730;11.110;2023-07-08T05:09:01;16.50;99.90
33739;DHT22;20063;51.730;11.110;2023-07-08T05:11:28;16.60;99.90
33739;DHT22;20063;51.730;11.110;2023-07-08T05:13:54;16.70;99.90
33739;DHT22;20063;51.730;11.110;2023-07-08T05:16:20;16.70;99.90
33739;DHT22;20063;51.730;11.110;2023-07-08T05:18:46;16.80;99.90
33739;DHT22;20063;51.730;11.110;2023-07-08T05:21:11;16.80;99.90
33739;DHT22;20063;51.730;11.110;2023-07-08T05:23:38;16.90;99.90
33739;DHT22;20063;51.730;11.110;2023-07-08T05:26:05;16.90;99.90
33739;DHT22;20063;51.730;11.110;2023-07-08T05:28:31;17.10;99.90
33739;DHT22;20063;51.730;11.110;2023-07-08T05:30:58;17.10;99.90
33739;DHT22;20063;51.730;11.110;2023-07-08T05:33:24;17.10;99.90
33739;DHT22;20063;51.730;11.110;2023-07-08T05:35:50;17.20;99.90
33739;DHT22;20063;51.730;11.110;2023-07-08T05:38:16;17.30;99.90
33739;DHT22;20063;51.730;11.110;2023-07-08T05:40:41;17.30;99.90
33739;DHT22;20063;51.730;11.110;2023-07-08T05:43:07;17.40;99.90
33739;DHT22;20063;51.730;11.110;2023-07-08T05:45:33;17.50;99.90
33739;DHT22;20063;51.730;11.110;2023-07-08T05:48:01;17.50;99.90
33739;DHT22;20063;51.730;11.110;2023-07-08T05:50:26;17.60;99.90
33739;DHT22;20063;51.730;11.110;2023-07-08T05:52:52;17.70;99.90
33739;DHT22;20063;51.730;11.110;2023-07-08T05:55:17;17.70;99.90
33739;DHT22;20063;51.730;11.110;2023-07-08T05:57:43;17.80;99.90
33739;DHT22;20063;51.730;11.110;2023-07-08T06:00:09;18.00;99.90
33739;DHT22;20063;51.730;11.110;2023-07-08T06:02:37;18.10;99.90
33739;DHT22;20063;51.730;11.110;2023-07-08T06:05:02;18.10;99.90
33739;DHT22;20063;51.730;11.110;2023-07-08T06:07:28;18.20;99.90
33739;DHT22;20063;51.730;11.110;2023-07-08T06:09:54;18.20;99.90
33739;DHT22;20063;51.730;11.110;2023-07-08T06:12:21;18.30;99.90
33739;DHT22;20063;51.730;11.110;2023-07-08T06:14:50;18.40;99.90
33739;DHT22;20063;51.730;11.110;2023-07-08T06:17:16;18.40;99.90
33739;DHT22;20063;51.730;11.110;2023-07-08T06:19:42;18.50;99.90
33739;DHT22;20063;51.730;11.110;2023-07-08T06:22:08;18.50;99.90
33739;DHT22;20063;51.730;11.110;2023-07-08T06:24:33;18.60;99.90
33739;DHT22;20063;51.730;11.110;2023-07-08T06:26:59;18.60;99.90
33739;DHT22;20063;51.730;11.110;2023-07-08T06:29:25;18.60;99.90
33739;DHT22;20063;51.730;11.110;2023-07-08T06:31:50;18.70;99.90
33739;DHT22;20063;51.730;11.110;2023-07-08T06:34:18;18.70;99.90
33739;DHT22;20063;51.730;11.110;2023-07-08T06:36:44;18.70;99.90
33739;DHT22;20063;51.730;11.110;2023-07-08T06:39:09;18.80;99.90
33739;DHT22;20063;51.730;11.110;2023-07-08T06:41:37;18.80;99.90
33739;DHT22;20063;51.730;11.110;2023-07-08T06:44:02;18.90;99.90
33739;DHT22;20063;51.730;11.110;2023-07-08T06:46:28;18.90;99.90
33739;DHT22;20063;51.730;11.110;2023-07-08T06:48:54;19.00;99.90
33739;DHT22;20063;51.730;11.110;2023-07-08T06:51:19;19.00;99.90
33739;DHT22;20063;51.730;11.110;2023-07-08T06:53:45;19.10;99.90
33739;DHT22;20063;51.730;11.110;2023-07-08T06:56:10;19.10;99.90
33739;DHT22;20063;51.730;11.110;2023-07-08T06:58:36;19.20;99.90
33739;DHT22;20063;51.730;11.110;2023-07-08T07:01:01;19.30;99.90
33739;DHT22;20063;51.730;11.110;2023-07-08T07:03:27;19.30;99.90
33739;DHT22;20063;51.730;11.110;2023-07-08T07:06:03;19.30;99.90
33739;DHT22;20063;51.730;11.110;2023-07-08T07:08:40;19.40;99.90
33739;DHT22;20063;51.730;11.110;2023-07-08T07:11:06;19.50;99.90
33739;DHT22;20063;51.730;11.110;2023-07-08T07:13:31;19.50;99.90
33739;DHT22;20063;51.730;11.110;2023-07-08T07:15:58;19.60;99.90
33739;DHT22;20063;51.730;11.110;2023-07-08T07:18:23;19.60;99.90
33739;DHT22;20063;51.730;11.110;2023-07-08T07:20:52;19.70;99.90
33739;DHT22;20063;51.730;11.110;2023-07-08T07:23:18;19.80;99.90
33739;DHT22;20063;51.730;11.110;2023-07-08T07:25:46;19.90;99.90
33739;DHT22;20063;51.730;11.110;2023-07-08T07:28:13;19.90;99.90
33739;DHT22;20063;51.730;11.110;2023-07-08T07:30:39;20.00;99.90
33739;DHT22;20063;51.730;11.110;2023-07-08T07:33:04;20.10;99.90
33739;DHT22;20063;51.730;11.110;2023-07-08T07:35:30;20.20;99.90
33739;DHT22;20063;51.730;11.110;2023-07-08T07:37:57;20.20;99.90
33739;DHT22;20063;51.730;11.110;2023-07-08T07:40:22;20.30;99.90
33739;DHT22;20063;51.730;11.110;2023-07-08T07:42:48;20.30;99.90
33739;DHT22;20063;51.730;11.110;2023-07-08T07:45:14;20.50;99.90
33739;DHT22;20063;51.730;11.110;2023-07-08T07:47:39;20.50;99.90
33739;DHT22;20063;51.730;11.110;2023-07-08T07:50:07;20.60;99.90
33739;DHT22;20063;51.730;11.110;2023-07-08T07:52:33;20.70;99.90
33739;DHT22;20063;51.730;11.110;2023-07-08T07:54:59;20.70;99.90
33739;DHT22;20063;51.730;11.110;2023-07-08T07:57:25;20.80;99.90
33739;DHT22;20063;51.730;11.110;2023-07-08T07:59:51;20.90;99.90
33739;DHT22;20063;51.730;11.110;2023-07-08T08:02:17;21.00;99.90
33739;DHT22;20063;51.730;11.110;2023-07-08T08:04:42;21.10;99.90
33739;DHT22;20063;51.730;11.110;2023-07-08T08:07:08;21.20;99.90
33739;DHT22;20063;51.730;11.110;2023-07-08T08:09:35;21.30;99.90
33739;DHT22;20063;51.730;11.110;2023-07-08T08:12:02;21.30;99.90
33739;DHT22;20063;51.730;11.110;2023-07-08T08:14:28;21.40;99.90
33739;DHT22;20063;51.730;11.110;2023-07-08T08:16:53;21.60;99.90
33739;DHT22;20063;51.730;11.110;2023-07-08T08:19:19;21.60;99.90
33739;DHT22;20063;51.730;11.110;2023-07-08T08:21:44;21.70;99.90
33739;DHT22;20063;51.730;11.110;2023-07-08T08:24:10;21.80;99.90
33739;DHT22;20063;51.730;11.110;2023-07-08T08:26:36;21.90;99.90
33739;DHT22;20063;51.730;11.110;2023-07-08T08:29:02;21.90;99.90
33739;DHT22;20063;51.730;11.110;2023-07-08T08:31:28;22.10;99.90
33739;DHT22;20063;51.730;11.110;2023-07-08T08:33:53;22.20;99.90
33739;DHT22;20063;51.730;11.110;2023-07-08T08:36:20;22.30;99.90
33739;DHT22;20063;51.730;11.110;2023-07-08T08:38:48;22.50;99.90
33739;DHT22;20063;51.730;11.110;2023-07-08T08:41:16;22.60;99.90
33739;DHT22;20063;51.730;11.110;2023-07-08T08:43:47;22.70;99.90
33739;DHT22;20063;51.730;11.110;2023-07-08T08:51:41;22.90;99.90
33739;DHT22;20063;51.730;11.110;2023-07-08T08:54:08;22.90;99.90
33739;DHT22;20063;51.730;11.110;2023-07-08T08:56:47;23.00;99.90
33739;DHT22;20063;51.730;11.110;2023-07-08T09:01:58;23.20;99.90
33739;DHT22;20063;51.730;11.110;2023-07-08T09:04:28;23.30;99.90
33739;DHT22;20063;51.730;11.110;2023-07-08T09:07:04;23.40;99.90
33739;DHT22;20063;51.730;11.110;2023-07-08T09:09:44;23.40;99.90
33739;DHT22;20063;51.730;11.110;2023-07-08T09:12:18;23.50;99.90
33739;DHT22;20063;51.730;11.110;2023-07-08T09:14:46;23.70;99.90
33739;DHT22;20063;51.730;11.110;2023-07-08T09:17:30;23.70;99.90
33739;DHT22;20063;51.730;11.110;2023-07-08T09:22:48;23.90;99.90
33739;DHT22;20063;51.730;11.110;2023-07-08T09:25:59;24.00;99.90
33739;DHT22;20063;51.730;11.110;2023-07-08T09:28:39;24.10;99.90
33739;DHT22;20063;51.730;11.110;2023-07-08T09:31:07;24.20;99.90
33739;DHT22;20063;51.730;11.110;2023-07-08T09:33:34;24.30;99.90
33739;DHT22;20063;51.730;11.110;2023-07-08T09:35:59;24.40;99.90
33739;DHT22;20063;51.730;11.110;2023-07-08T09:38:26;24.50;99.90
33739;DHT22;20063;51.730;11.110;2023-07-08T09:40:53;24.50;99.90
33739;DHT22;20063;51.730;11.110;2023-07-08T09:43:28;24.70;99.90
33739;DHT22;20063;51.730;11.110;2023-07-08T09:45:59;24.80;99.90
33739;DHT22;20063;51.730;11.110;2023-07-08T09:48:28;24.90;99.90
33739;DHT22;20063;51.730;11.110;2023-07-08T09:50:54;24.90;99.90
33739;DHT22;20063;51.730;11.110;2023-07-08T09:53:22;25.00;99.90
33739;DHT22;20063;51.730;11.110;2023-07-08T09:55:49;25.00;99.90
33739;DHT22;20063;51.730;11.110;2023-07-08T09:58:23;25.10;99.30
33739;DHT22;20063;51.730;11.110;2023-07-08T10:00:53;25.20;97.20
33739;DHT22;20063;51.730;11.110;2023-07-08T10:03:21;25.20;97.80
33739;DHT22;20063;51.730;11.110;2023-07-08T10:05:48;25.20;95.20
33739;DHT22;20063;51.730;11.110;2023-07-08T10:08:19;25.30;95.30
33739;DHT22;20063;51.730;11.110;2023-07-08T10:11:24;25.40;96.00
33739;DHT22;20063;51.730;11.110;2023-07-08T10:13:53;25.50;97.60
33739;DHT22;20063;51.730;11.110;2023-07-08T10:16:32;25.70;94.50
33739;DHT22;20063;51.730;11.110;2023-07-08T10:18:59;25.70;94.40
33739;DHT22;20063;51.730;11.110;2023-07-08T10:27:31;25.80;95.70
33739;DHT22;20063;51.730;11.110;2023-07-08T10:35:35;26.00;90.50
33739;DHT22;20063;51.730;11.110;2023-07-08T11:07:53;26.60;70.60
33739;DHT22;20063;51.730;11.110;2023-07-08T11:10:25;26.70;70.90
33739;DHT22;20063;51.730;11.110;2023-07-08T11:12:59;26.80;65.60
33739;DHT22;20063;51.730;11.110;2023-07-08T11:15:34;26.90;68.20
33739;DHT22;20063;51.730;11.110;2023-07-08T11:18:15;26.90;71.40
33739;DHT22;20063;51.730;11.110;2023-07-08T11:21:06;27.00;66.10
33739;DHT22;20063;51.730;11.110;2023-07-08T11:23:39;27.00;62.10
33739;DHT22;20063;51.730;11.110;2023-07-08T11:28:58;27.10;61.10
33739;DHT22;20063;51.730;11.110;2023-07-08T11:31:26;27.20;61.90
33739;DHT22;20063;51.730;11.110;2023-07-08T11:33:54;27.20;59.80
33739;DHT22;20063;51.730;11.110;2023-07-08T11:36:21;27.20;58.00
33739;DHT22;20063;51.730;11.110;2023-07-08T11:38:49;27.10;60.50
33739;DHT22;20063;51.730;11.110;2023-07-08T11:41:18;27.10;59.90
33739;DHT22;20063;51.730;11.110;2023-07-08T11:43:50;27.20;58.50
33739;DHT22;20063;51.730;11.110;2023-07-08T11:46:53;27.20;55.80
33739;DHT22;20063;51.730;11.110;2023-07-08T11:49:19;27.20;55.40
33739;DHT22;20063;51.730;11.110;2023-07-08T11:51:46;27.20;56.30
33739;DHT22;20063;51.730;11.110;2023-07-08T11:54:14;27.30;56.10
33739;DHT22;20063;51.730;11.110;2023-07-08T11:59:25;27.40;54.10
33739;DHT22;20063;51.730;11.110;2023-07-08T12:01:52;27.40;53.80
33739;DHT22;20063;51.730;11.110;2023-07-08T12:04:35;27.40;53.50
33739;DHT22;20063;51.730;11.110;2023-07-08T12:07:37;27.40;53.70
33739;DHT22;20063;51.730;11.110;2023-07-08T12:10:19;27.40;52.00
33739;DHT22;20063;51.730;11.110;2023-07-08T12:12:48;27.40;53.00
33739;DHT22;20063;51.730;11.110;2023-07-08T12:15:40;27.50;52.90
33739;DHT22;20063;51.730;11.110;2023-07-08T12:18:20;27.40;54.10
33739;DHT22;20063;51.730;11.110;2023-07-08T12:21:07;27.50;52.70
33739;DHT22;20063;51.730;11.110;2023-07-08T12:23:33;27.50;51.40
33739;DHT22;20063;51.730;11.110;2023-07-08T12:25:58;27.50;51.70
33739;DHT22;20063;51.730;11.110;2023-07-08T12:28:25;27.50;51.90
33739;DHT22;20063;51.730;11.110;2023-07-08T12:30:51;27.50;51.80
33739;DHT22;20063;51.730;11.110;2023-07-08T12:33:30;27.60;51.90
33739;DHT22;20063;51.730;11.110;2023-07-08T12:35:59;27.60;51.20
33739;DHT22;20063;51.730;11.110;2023-07-08T12:38:33;27.70;50.10
33739;DHT22;20063;51.730;11.110;2023-07-08T12:41:09;27.70;49.70
33739;DHT22;20063;51.730;11.110;2023-07-08T12:43:35;27.80;51.50
33739;DHT22;20063;51.730;11.110;2023-07-08T12:46:01;27.80;51.40
33739;DHT22;20063;51.730;11.110;2023-07-08T12:48:33;27.90;49.30
33739;DHT22;20063;51.730;11.110;2023-07-08T12:50:59;27.80;48.50
33739;DHT22;20063;51.730;11.110;2023-07-08T12:53:25;28.10;54.00
33739;DHT22;20063;51.730;11.110;2023-07-08T12:55:52;28.10;48.10
33739;DHT22;20063;51.730;11.110;2023-07-08T12:58:25;28.20;46.90
33739;DHT22;20063;51.730;11.110;2023-07-08T13:00:53;28.30;43.90
33739;DHT22;20063;51.730;11.110;2023-07-08T13:03:22;28.20;43.70
33739;DHT22;20063;51.730;11.110;2023-07-08T13:05:49;28.20;44.20
33739;DHT22;20063;51.730;11.110;2023-07-08T13:08:17;28.10;42.70
33739;DHT22;20063;51.730;11.110;2023-07-08T13:10:44;28.10;42.70
33739;DHT22;20063;51.730;11.110;2023-07-08T13:13:26;28.10;43.70
33739;DHT22;20063;51.730;11.110;2023-07-08T13:15:54;28.10;45.10
33739;DHT22;20063;51.730;11.110;2023-07-08T13:18:24;28.20;43.80
33739;DHT22;20063;51.730;11.110;2023-07-08T13:20:54;28.30;42.90
33739;DHT22;20063;51.730;11.110;2023-07-08T13:23:22;28.50;43.20
33739;DHT22;20063;51.730;11.110;2023-07-08T13:25:49;28.50;41.70
33739;DHT22;20063;51.730;11.110;2023-07-08T13:28:20;28.50;41.60
33739;DHT22;20063;51.730;11.110;2023-07-08T13:33:18;28.40;42.90
33739;DHT22;20063;51.730;11.110;2023-07-08T13:35:45;28.40;45.50
33739;DHT22;20063;51.730;11.110;2023-07-08T13:38:24;28.50;44.80
33739;DHT22;20063;51.730;11.110;2023-07-08T13:40:56;28.60;42.70
33739;DHT22;20063;51.730;11.110;2023-07-08T13:43:25;28.70;41.70
33739;DHT22;20063;51.730;11.110;2023-07-08T13:45:53;28.70;42.30
33739;DHT22;20063;51.730;11.110;2023-07-08T13:48:40;28.70;44.30
33739;DHT22;20063;51.730;11.110;2023-07-08T13:51:15;29.00;43.10
33739;DHT22;20063;51.730;11.110;2023-07-08T13:53:46;29.00;42.90
33739;DHT22;20063;51.730;11.110;2023-07-08T13:58:50;28.90;41.30
33739;DHT22;20063;51.730;11.110;2023-07-08T14:01:20;28.90;41.20
33739;DHT22;20063;51.730;11.110;2023-07-08T14:03:46;28.70;40.50
33739;DHT22;20063;51.730;11.110;2023-07-08T14:06:24;28.70;41.00
33739;DHT22;20063;51.730;11.110;2023-07-08T14:08:56;28.60;40.70
33739;DHT22;20063;51.730;11.110;2023-07-08T14:11:23;28.60;40.90
33739;DHT22;20063;51.730;11.110;2023-07-08T14:13:49;28.70;42.20
33739;DHT22;20063;51.730;11.110;2023-07-08T14:16:26;28.80;42.50
33739;DHT22;20063;51.730;11.110;2023-07-08T14:18:55;28.80;41.40
33739;DHT22;20063;51.730;11.110;2023-07-08T14:21:21;28.70;41.30
33739;DHT22;20063;51.730;11.110;2023-07-08T14:23:47;28.90;41.60
33739;DHT22;20063;51.730;11.110;2023-07-08T14:26:13;29.00;41.30
33739;DHT22;20063;51.730;11.110;2023-07-08T14:28:38;29.10;38.80
33739;DHT22;20063;51.730;11.110;2023-07-08T14:31:09;29.20;40.70
33739;DHT22;20063;51.730;11.110;2023-07-08T14:33:35;29.20;41.00
33739;DHT22;20063;51.730;11.110;2023-07-08T14:36:01;29.10;40.80
33739;DHT22;20063;51.730;11.110;2023-07-08T14:38:27;29.10;39.30
33739;DHT22;20063;51.730;11.110;2023-07-08T14:40:55;29.10;39.60
33739;DHT22;20063;51.730;11.110;2023-07-08T14:43:27;29.10;40.10
33739;DHT22;20063;51.730;11.110;2023-07-08T14:45:55;29.10;40.90
33739;DHT22;20063;51.730;11.110;2023-07-08T14:48:22;29.10;39.40
33739;DHT22;20063;51.730;11.110;2023-07-08T14:50:50;29.00;40.30
33739;DHT22;20063;51.730;11.110;2023-07-08T14:53:17;29.20;39.20
33739;DHT22;20063;51.730;11.110;2023-07-08T14:55:47;29.30;39.00
33739;DHT22;20063;51.730;11.110;2023-07-08T14:58:30;29.30;38.40
33739;DHT22;20063;51.730;11.110;2023-07-08T15:01:00;29.30;41.80
33739;DHT22;20063;51.730;11.110;2023-07-08T15:03:28;29.30;38.10
33739;DHT22;20063;51.730;11.110;2023-07-08T15:05:53;29.40;40.50
33739;DHT22;20063;51.730;11.110;2023-07-08T15:08:19;29.60;42.30
33739;DHT22;20063;51.730;11.110;2023-07-08T15:10:48;29.70;42.40
33739;DHT22;20063;51.730;11.110;2023-07-08T15:13:15;29.80;40.70
33739;DHT22;20063;51.730;11.110;2023-07-08T15:15:41;29.70;41.20
33739;DHT22;20063;51.730;11.110;2023-07-08T15:18:16;29.60;39.60
33739;DHT22;20063;51.730;11.110;2023-07-08T15:20:43;29.50;39.60
33739;DHT22;20063;51.730;11.110;2023-07-08T15:23:12;29.40;38.50
33739;DHT22;20063;51.730;11.110;2023-07-08T15:25:43;29.30;37.60
33739;DHT22;20063;51.730;11.110;2023-07-08T15:28:25;29.20;37.60
33739;DHT22;20063;51.730;11.110;2023-07-08T15:31:00;29.10;37.90
33739;DHT22;20063;51.730;11.110;2023-07-08T15:33:26;29.10;38.80
33739;DHT22;20063;51.730;11.110;2023-07-08T15:35:52;29.00;39.20
33739;DHT22;20063;51.730;11.110;2023-07-08T15:38:18;29.00;39.70
33739;DHT22;20063;51.730;11.110;2023-07-08T15:40:44;29.00;39.70
33739;DHT22;20063;51.730;11.110;2023-07-08T15:43:12;29.00;38.90
33739;DHT22;20063;51.730;11.110;2023-07-08T15:45:39;29.00;38.20
33739;DHT22;20063;51.730;11.110;2023-07-08T15:48:12;29.10;38.70
33739;DHT22;20063;51.730;11.110;2023-07-08T15:50:38;29.10;39.40
33739;DHT22;20063;51.730;11.110;2023-07-08T15:53:04;29.10;39.40
33739;DHT22;20063;51.730;11.110;2023-07-08T15:55:31;29.10;39.30
33739;DHT22;20063;51.730;11.110;2023-07-08T15:58:03;29.00;39.20
33739;DHT22;20063;51.730;11.110;2023-07-08T16:00:32;29.00;39.30
33739;DHT22;20063;51.730;11.110;2023-07-08T16:03:05;29.00;38.50
33739;DHT22;20063;51.730;11.110;2023-07-08T16:05:31;29.00;38.80
33739;DHT22;20063;51.730;11.110;2023-07-08T16:08:00;29.00;39.30
33739;DHT22;20063;51.730;11.110;2023-07-08T16:10:26;29.00;40.20
33739;DHT22;20063;51.730;11.110;2023-07-08T16:12:52;29.10;40.20
33739;DHT22;20063;51.730;11.110;2023-07-08T16:15:31;29.10;40.10
33739;DHT22;20063;51.730;11.110;2023-07-08T16:17:58;29.20;39.00
33739;DHT22;20063;51.730;11.110;2023-07-08T16:20:26;29.30;39.10
33739;DHT22;20063;51.730;11.110;2023-07-08T16:22:52;29.40;38.90
33739;DHT22;20063;51.730;11.110;2023-07-08T16:25:38;29.40;38.60
33739;DHT22;20063;51.730;11.110;2023-07-08T16:28:05;29.40;39.30
33739;DHT22;20063;51.730;11.110;2023-07-08T16:30:32;29.50;39.90
33739;DHT22;20063;51.730;11.110;2023-07-08T16:32:58;29.50;39.80
33739;DHT22;20063;51.730;11.110;2023-07-08T16:35:23;29.50;40.00
33739;DHT22;20063;51.730;11.110;2023-07-08T16:37:51;29.50;39.90